sensor_id;sensor_type;location;lat;lon;timestamp;P1;durP1;ratioP1;P2;durP2;ratioP2
49626;SDS011;35527;54.616;39.786;2023-02-07T00:01:34;14.65;;;6.45;;
49626;SDS011;35527;54.616;39.786;2023-02-07T00:04:38;22.85;;;7.38;;
49626;SDS011;35527;54.616;39.786;2023-02-07T00:07:41;16.98;;;6.50;;
49626;SDS011;35527;54.616;39.786;2023-02-07T00:10:51;15.18;;;6.43;;
49626;SDS011;35527;54.616;39.786;2023-02-07T00:13:58;16.45;;;6.07;;
49626;SDS011;35527;54.616;39.786;2023-02-07T00:17:04;20.73;;;6.70;;
49626;SDS011;35527;54.616;39.786;2023-02-07T00:20:07;18.27;;;6.13;;
49626;SDS011;35527;54.616;39.786;2023-02-07T00:23:13;16.80;;;6.47;;
49626;SDS011;35527;54.616;39.786;2023-02-07T00:26:20;16.77;;;5.88;;
49626;SDS011;35527;54.616;39.786;2023-02-07T00:29:49;17.63;;;6.97;;
49626;SDS011;35527;54.616;39.786;2023-02-07T00:32:53;18.27;;;6.78;;
49626;SDS011;35527;54.616;39.786;2023-02-07T00:35:58;17.15;;;7.45;;
49626;SDS011;35527;54.616;39.786;2023-02-07T00:39:10;19.90;;;6.43;;
49626;SDS011;35527;54.616;39.786;2023-02-07T00:42:15;16.45;;;4.97;;
49626;SDS011;35527;54.616;39.786;2023-02-07T00:45:18;13.85;;;5.22;;
49626;SDS011;35527;54.616;39.786;2023-02-07T00:48:23;21.07;;;6.53;;
49626;SDS011;35527;54.616;39.786;2023-02-07T00:51:38;19.75;;;7.22;;
49626;SDS011;35527;54.616;39.786;2023-02-07T00:54:45;17.75;;;6.75;;
49626;SDS011;35527;54.616;39.786;2023-02-07T00:57:48;16.77;;;6.38;;
49626;SDS011;35527;54.616;39.786;2023-02-07T01:00:57;20.38;;;8.13;;
49626;SDS011;35527;54.616;39.786;2023-02-07T01:04:01;21.58;;;7.22;;
49626;SDS011;35527;54.616;39.786;2023-02-07T01:07:03;20.85;;;7.50;;
49626;SDS011;35527;54.616;39.786;2023-02-07T01:10:08;21.30;;;6.63;;
49626;SDS011;35527;54.616;39.786;2023-02-07T01:13:16;16.63;;;5.90;;
49626;SDS011;35527;54.616;39.786;2023-02-07T01:16:24;15.55;;;6.38;;
49626;SDS011;35527;54.616;39.786;2023-02-07T01:19:36;16.20;;;6.70;;
49626;SDS011;35527;54.616;39.786;2023-02-07T01:22:38;14.15;;;5.30;;
49626;SDS011;35527;54.616;39.786;2023-02-07T01:25:45;19.48;;;6.18;;
49626;SDS011;35527;54.616;39.786;2023-02-07T01:28:50;18.90;;;6.40;;
49626;SDS011;35527;54.616;39.786;2023-02-07T01:32:22;11.93;;;4.82;;
49626;SDS011;35527;54.616;39.786;2023-02-07T01:35:25;11.23;;;5.82;;
49626;SDS011;35527;54.616;39.786;2023-02-07T01:38:28;16.77;;;6.82;;
49626;SDS011;35527;54.616;39.786;2023-02-07T01:41:36;14.95;;;5.50;;
49626;SDS011;35527;54.616;39.786;2023-02-07T01:47:46;10.40;;;4.70;;
49626;SDS011;35527;54.616;39.786;2023-02-07T01:50:56;16.08;;;6.20;;
49626;SDS011;35527;54.616;39.786;2023-02-07T01:54:03;18.58;;;5.97;;
49626;SDS011;35527;54.616;39.786;2023-02-07T01:57:11;14.73;;;4.93;;
49626;SDS011;35527;54.616;39.786;2023-02-07T02:00:17;14.50;;;5.60;;
49626;SDS011;35527;54.616;39.786;2023-02-07T02:03:22;13.48;;;5.15;;
49626;SDS011;35527;54.616;39.786;2023-02-07T02:06:51;12.00;;;4.80;;
49626;SDS011;35527;54.616;39.786;2023-02-07T02:09:54;15.60;;;5.50;;
49626;SDS011;35527;54.616;39.786;2023-02-07T02:13:18;15.30;;;5.78;;
49626;SDS011;35527;54.616;39.786;2023-02-07T02:16:39;14.30;;;6.30;;
49626;SDS011;35527;54.616;39.786;2023-02-07T02:37:53;10.90;;;5.30;;
49626;SDS011;35527;54.616;39.786;2023-02-07T02:41:05;11.02;;;4.95;;
49626;SDS011;35527;54.616;39.786;2023-02-07T02:44:17;9.50;;;3.90;;
49626;SDS011;35527;54.616;39.786;2023-02-07T02:47:34;13.40;;;4.25;;
49626;SDS011;35527;54.616;39.786;2023-02-07T02:50:40;7.95;;;3.13;;
49626;SDS011;35527;54.616;39.786;2023-02-07T02:54:25;19.15;;;6.10;;
49626;SDS011;35527;54.616;39.786;2023-02-07T03:00:36;19.35;;;7.45;;
49626;SDS011;35527;54.616;39.786;2023-02-07T03:04:10;15.32;;;7.85;;
49626;SDS011;35527;54.616;39.786;2023-02-07T03:08:06;15.80;;;7.38;;
49626;SDS011;35527;54.616;39.786;2023-02-07T03:14:20;16.85;;;7.80;;
49626;SDS011;35527;54.616;39.786;2023-02-07T03:24:04;18.75;;;5.80;;
49626;SDS011;35527;54.616;39.786;2023-02-07T03:27:13;13.65;;;5.70;;
49626;SDS011;35527;54.616;39.786;2023-02-07T03:30:20;22.75;;;7.55;;
49626;SDS011;35527;54.616;39.786;2023-02-07T03:33:26;15.60;;;6.47;;
49626;SDS011;35527;54.616;39.786;2023-02-07T03:40:14;12.00;;;5.90;;
49626;SDS011;35527;54.616;39.786;2023-02-07T03:43:20;20.60;;;6.60;;
49626;SDS011;35527;54.616;39.786;2023-02-07T03:46:31;13.02;;;6.22;;
49626;SDS011;35527;54.616;39.786;2023-02-07T03:49:37;16.48;;;5.60;;
49626;SDS011;35527;54.616;39.786;2023-02-07T03:52:41;15.65;;;5.75;;
49626;SDS011;35527;54.616;39.786;2023-02-07T03:55:46;18.50;;;8.63;;
49626;SDS011;35527;54.616;39.786;2023-02-07T03:58:56;33.70;;;11.30;;
49626;SDS011;35527;54.616;39.786;2023-02-07T04:02:01;44.22;;;16.50;;
49626;SDS011;35527;54.616;39.786;2023-02-07T04:05:06;53.35;;;20.80;;
49626;SDS011;35527;54.616;39.786;2023-02-07T04:08:09;28.47;;;14.53;;
49626;SDS011;35527;54.616;39.786;2023-02-07T04:11:12;25.85;;;10.43;;
49626;SDS011;35527;54.616;39.786;2023-02-07T04:14:16;17.85;;;9.13;;
49626;SDS011;35527;54.616;39.786;2023-02-07T04:17:26;16.15;;;9.05;;
49626;SDS011;35527;54.616;39.786;2023-02-07T04:20:32;20.13;;;7.55;;
49626;SDS011;35527;54.616;39.786;2023-02-07T04:23:36;22.52;;;7.85;;
49626;SDS011;35527;54.616;39.786;2023-02-07T04:26:39;22.33;;;9.18;;
49626;SDS011;35527;54.616;39.786;2023-02-07T04:29:45;23.33;;;9.98;;
49626;SDS011;35527;54.616;39.786;2023-02-07T04:32:49;17.45;;;7.40;;
49626;SDS011;35527;54.616;39.786;2023-02-07T04:35:56;23.77;;;7.88;;
49626;SDS011;35527;54.616;39.786;2023-02-07T04:39:03;22.55;;;7.72;;
49626;SDS011;35527;54.616;39.786;2023-02-07T04:42:07;13.07;;;5.95;;
49626;SDS011;35527;54.616;39.786;2023-02-07T04:45:12;20.90;;;6.53;;
49626;SDS011;35527;54.616;39.786;2023-02-07T04:48:15;16.65;;;6.10;;
49626;SDS011;35527;54.616;39.786;2023-02-07T04:51:42;11.85;;;5.10;;
49626;SDS011;35527;54.616;39.786;2023-02-07T04:54:47;14.77;;;6.47;;
49626;SDS011;35527;54.616;39.786;2023-02-07T04:57:50;18.08;;;6.90;;
49626;SDS011;35527;54.616;39.786;2023-02-07T05:01:18;13.50;;;4.90;;
49626;SDS011;35527;54.616;39.786;2023-02-07T05:04:22;13.32;;;4.97;;
49626;SDS011;35527;54.616;39.786;2023-02-07T05:07:27;15.07;;;5.78;;
49626;SDS011;35527;54.616;39.786;2023-02-07T05:10:35;12.02;;;4.15;;
49626;SDS011;35527;54.616;39.786;2023-02-07T05:13:39;15.90;;;5.30;;
49626;SDS011;35527;54.616;39.786;2023-02-07T05:16:42;13.35;;;6.28;;
49626;SDS011;35527;54.616;39.786;2023-02-07T05:19:47;21.90;;;6.90;;
49626;SDS011;35527;54.616;39.786;2023-02-07T05:22:50;16.85;;;6.80;;
49626;SDS011;35527;54.616;39.786;2023-02-07T05:25:54;20.33;;;8.30;;
49626;SDS011;35527;54.616;39.786;2023-02-07T05:28:58;19.98;;;8.00;;
49626;SDS011;35527;54.616;39.786;2023-02-07T05:32:29;30.17;;;10.52;;
49626;SDS011;35527;54.616;39.786;2023-02-07T05:35:51;19.38;;;8.65;;
49626;SDS011;35527;54.616;39.786;2023-02-07T05:38:54;25.80;;;9.50;;
49626;SDS011;35527;54.616;39.786;2023-02-07T05:41:58;26.45;;;9.50;;
49626;SDS011;35527;54.616;39.786;2023-02-07T05:45:02;29.33;;;10.40;;
49626;SDS011;35527;54.616;39.786;2023-02-07T05:48:07;24.13;;;8.80;;
49626;SDS011;35527;54.616;39.786;2023-02-07T05:51:11;22.23;;;8.98;;
49626;SDS011;35527;54.616;39.786;2023-02-07T05:54:18;27.27;;;9.05;;
49626;SDS011;35527;54.616;39.786;2023-02-07T05:57:22;14.52;;;5.43;;
49626;SDS011;35527;54.616;39.786;2023-02-07T06:00:24;22.73;;;7.70;;
49626;SDS011;35527;54.616;39.786;2023-02-07T06:03:28;26.42;;;10.15;;
49626;SDS011;35527;54.616;39.786;2023-02-07T06:06:33;24.60;;;10.20;;
49626;SDS011;35527;54.616;39.786;2023-02-07T06:09:35;25.35;;;9.80;;
49626;SDS011;35527;54.616;39.786;2023-02-07T06:12:39;28.58;;;10.02;;
49626;SDS011;35527;54.616;39.786;2023-02-07T06:15:42;26.08;;;11.48;;
49626;SDS011;35527;54.616;39.786;2023-02-07T06:18:48;32.97;;;19.35;;
49626;SDS011;35527;54.616;39.786;2023-02-07T06:21:54;20.38;;;9.23;;
49626;SDS011;35527;54.616;39.786;2023-02-07T06:24:59;22.75;;;9.40;;
49626;SDS011;35527;54.616;39.786;2023-02-07T06:28:01;24.50;;;10.07;;
49626;SDS011;35527;54.616;39.786;2023-02-07T06:31:05;26.25;;;11.70;;
49626;SDS011;35527;54.616;39.786;2023-02-07T06:37:15;31.13;;;11.80;;
49626;SDS011;35527;54.616;39.786;2023-02-07T06:40:19;32.50;;;12.20;;
49626;SDS011;35527;54.616;39.786;2023-02-07T06:43:23;27.15;;;11.65;;
49626;SDS011;35527;54.616;39.786;2023-02-07T06:46:26;25.00;;;11.63;;
49626;SDS011;35527;54.616;39.786;2023-02-07T06:49:33;32.65;;;18.73;;
49626;SDS011;35527;54.616;39.786;2023-02-07T06:52:38;31.20;;;11.77;;
49626;SDS011;35527;54.616;39.786;2023-02-07T06:55:42;28.65;;;11.63;;
49626;SDS011;35527;54.616;39.786;2023-02-07T06:58:46;24.88;;;10.57;;
49626;SDS011;35527;54.616;39.786;2023-02-07T07:01:51;28.38;;;11.85;;
49626;SDS011;35527;54.616;39.786;2023-02-07T07:05:19;29.23;;;14.13;;
49626;SDS011;35527;54.616;39.786;2023-02-07T07:08:24;27.77;;;13.77;;
49626;SDS011;35527;54.616;39.786;2023-02-07T07:11:27;28.45;;;13.48;;
49626;SDS011;35527;54.616;39.786;2023-02-07T07:14:31;32.03;;;14.77;;
49626;SDS011;35527;54.616;39.786;2023-02-07T07:17:35;31.83;;;21.50;;
49626;SDS011;35527;54.616;39.786;2023-02-07T07:21:03;33.35;;;21.83;;
49626;SDS011;35527;54.616;39.786;2023-02-07T07:24:11;29.13;;;13.40;;
49626;SDS011;35527;54.616;39.786;2023-02-07T07:27:19;24.85;;;12.68;;
49626;SDS011;35527;54.616;39.786;2023-02-07T07:30:21;29.38;;;19.85;;
49626;SDS011;35527;54.616;39.786;2023-02-07T07:33:26;31.63;;;19.90;;
49626;SDS011;35527;54.616;39.786;2023-02-07T07:36:29;30.48;;;18.73;;
49626;SDS011;35527;54.616;39.786;2023-02-07T07:39:33;23.00;;;11.57;;
49626;SDS011;35527;54.616;39.786;2023-02-07T07:42:38;30.77;;;19.77;;
49626;SDS011;35527;54.616;39.786;2023-02-07T07:45:55;30.05;;;20.25;;
49626;SDS011;35527;54.616;39.786;2023-02-07T07:49:00;27.17;;;11.68;;
49626;SDS011;35527;54.616;39.786;2023-02-07T07:52:03;28.13;;;19.15;;
49626;SDS011;35527;54.616;39.786;2023-02-07T07:55:07;27.77;;;11.77;;
49626;SDS011;35527;54.616;39.786;2023-02-07T07:58:13;31.08;;;19.25;;
49626;SDS011;35527;54.616;39.786;2023-02-07T08:01:16;31.10;;;18.80;;
49626;SDS011;35527;54.616;39.786;2023-02-07T08:04:21;34.00;;;18.35;;
49626;SDS011;35527;54.616;39.786;2023-02-07T08:07:24;35.63;;;19.23;;
49626;SDS011;35527;54.616;39.786;2023-02-07T08:10:28;25.17;;;11.30;;
49626;SDS011;35527;54.616;39.786;2023-02-07T08:13:32;30.38;;;18.65;;
49626;SDS011;35527;54.616;39.786;2023-02-07T08:16:34;25.13;;;17.38;;
49626;SDS011;35527;54.616;39.786;2023-02-07T08:19:38;28.70;;;18.55;;
49626;SDS011;35527;54.616;39.786;2023-02-07T08:22:41;29.33;;;16.75;;
49626;SDS011;35527;54.616;39.786;2023-02-07T08:25:45;27.60;;;18.92;;
49626;SDS011;35527;54.616;39.786;2023-02-07T08:28:49;28.13;;;17.33;;
49626;SDS011;35527;54.616;39.786;2023-02-07T08:31:54;23.17;;;11.55;;
49626;SDS011;35527;54.616;39.786;2023-02-07T08:34:59;29.45;;;17.40;;
49626;SDS011;35527;54.616;39.786;2023-02-07T08:38:02;26.17;;;17.60;;
49626;SDS011;35527;54.616;39.786;2023-02-07T08:41:06;24.85;;;17.27;;
49626;SDS011;35527;54.616;39.786;2023-02-07T08:44:11;27.25;;;17.83;;
49626;SDS011;35527;54.616;39.786;2023-02-07T08:47:16;25.83;;;17.67;;
49626;SDS011;35527;54.616;39.786;2023-02-07T08:50:21;26.45;;;17.00;;
49626;SDS011;35527;54.616;39.786;2023-02-07T08:53:24;26.70;;;17.30;;
49626;SDS011;35527;54.616;39.786;2023-02-07T08:56:29;27.25;;;17.83;;
49626;SDS011;35527;54.616;39.786;2023-02-07T08:59:32;29.67;;;17.30;;
49626;SDS011;35527;54.616;39.786;2023-02-07T09:02:40;25.52;;;17.75;;
49626;SDS011;35527;54.616;39.786;2023-02-07T09:05:45;25.80;;;16.97;;
49626;SDS011;35527;54.616;39.786;2023-02-07T09:08:49;27.42;;;17.40;;
49626;SDS011;35527;54.616;39.786;2023-02-07T09:11:53;24.88;;;15.20;;
49626;SDS011;35527;54.616;39.786;2023-02-07T09:14:57;24.25;;;16.05;;
49626;SDS011;35527;54.616;39.786;2023-02-07T09:18:02;25.27;;;16.02;;
49626;SDS011;35527;54.616;39.786;2023-02-07T09:21:05;22.35;;;15.18;;
49626;SDS011;35527;54.616;39.786;2023-02-07T09:24:10;22.05;;;14.98;;
49626;SDS011;35527;54.616;39.786;2023-02-07T09:27:13;23.70;;;14.70;;
49626;SDS011;35527;54.616;39.786;2023-02-07T09:30:17;25.83;;;15.73;;
49626;SDS011;35527;54.616;39.786;2023-02-07T09:33:22;22.10;;;14.98;;
49626;SDS011;35527;54.616;39.786;2023-02-07T09:36:29;21.10;;;13.73;;
49626;SDS011;35527;54.616;39.786;2023-02-07T09:39:37;23.90;;;15.40;;
49626;SDS011;35527;54.616;39.786;2023-02-07T09:42:47;21.63;;;14.75;;
49626;SDS011;35527;54.616;39.786;2023-02-07T09:46:02;22.27;;;14.27;;
49626;SDS011;35527;54.616;39.786;2023-02-07T09:49:28;25.77;;;15.45;;
49626;SDS011;35527;54.616;39.786;2023-02-07T09:56:05;13.82;;;7.15;;
49626;SDS011;35527;54.616;39.786;2023-02-07T10:06:24;16.92;;;7.30;;
49626;SDS011;35527;54.616;39.786;2023-02-07T10:09:32;22.63;;;13.00;;
49626;SDS011;35527;54.616;39.786;2023-02-07T10:13:15;16.23;;;7.78;;
49626;SDS011;35527;54.616;39.786;2023-02-07T10:23:39;19.83;;;12.93;;
49626;SDS011;35527;54.616;39.786;2023-02-07T10:26:52;20.92;;;12.70;;
49626;SDS011;35527;54.616;39.786;2023-02-07T10:30:03;15.27;;;5.88;;
49626;SDS011;35527;54.616;39.786;2023-02-07T10:33:18;12.47;;;4.53;;
49626;SDS011;35527;54.616;39.786;2023-02-07T10:36:24;10.32;;;3.17;;
49626;SDS011;35527;54.616;39.786;2023-02-07T10:39:32;12.80;;;4.70;;
49626;SDS011;35527;54.616;39.786;2023-02-07T10:42:47;12.35;;;4.68;;
49626;SDS011;35527;54.616;39.786;2023-02-07T10:45:57;16.60;;;11.02;;
49626;SDS011;35527;54.616;39.786;2023-02-07T10:49:46;12.23;;;4.88;;
49626;SDS011;35527;54.616;39.786;2023-02-07T10:52:47;16.33;;;9.10;;
49626;SDS011;35527;54.616;39.786;2023-02-07T10:55:52;8.85;;;3.53;;
49626;SDS011;35527;54.616;39.786;2023-02-07T10:58:55;6.43;;;2.95;;
49626;SDS011;35527;54.616;39.786;2023-02-07T11:02:07;9.60;;;3.92;;
49626;SDS011;35527;54.616;39.786;2023-02-07T11:05:32;12.50;;;7.97;;
49626;SDS011;35527;54.616;39.786;2023-02-07T11:08:37;9.27;;;3.47;;
49626;SDS011;35527;54.616;39.786;2023-02-07T11:11:46;14.57;;;5.13;;
49626;SDS011;35527;54.616;39.786;2023-02-07T11:15:00;16.55;;;9.73;;
49626;SDS011;35527;54.616;39.786;2023-02-07T11:18:18;12.77;;;4.28;;
49626;SDS011;35527;54.616;39.786;2023-02-07T11:21:50;9.55;;;2.50;;
49626;SDS011;35527;54.616;39.786;2023-02-07T11:25:00;10.90;;;4.32;;
49626;SDS011;35527;54.616;39.786;2023-02-07T11:28:06;6.63;;;2.67;;
49626;SDS011;35527;54.616;39.786;2023-02-07T11:31:17;7.43;;;2.88;;
49626;SDS011;35527;54.616;39.786;2023-02-07T11:34:53;9.68;;;3.83;;
49626;SDS011;35527;54.616;39.786;2023-02-07T11:38:12;15.25;;;8.13;;
49626;SDS011;35527;54.616;39.786;2023-02-07T11:41:21;16.33;;;9.18;;
49626;SDS011;35527;54.616;39.786;2023-02-07T11:44:29;7.03;;;2.55;;
49626;SDS011;35527;54.616;39.786;2023-02-07T11:47:33;10.30;;;4.83;;
49626;SDS011;35527;54.616;39.786;2023-02-07T11:50:39;8.60;;;3.28;;
49626;SDS011;35527;54.616;39.786;2023-02-07T11:53:47;10.65;;;4.63;;
49626;SDS011;35527;54.616;39.786;2023-02-07T11:57:03;13.95;;;4.18;;
49626;SDS011;35527;54.616;39.786;2023-02-07T12:00:23;10.10;;;3.70;;
49626;SDS011;35527;54.616;39.786;2023-02-07T12:03:41;7.97;;;3.75;;
49626;SDS011;35527;54.616;39.786;2023-02-07T12:10:00;11.48;;;4.10;;
49626;SDS011;35527;54.616;39.786;2023-02-07T12:13:45;10.40;;;6.22;;
49626;SDS011;35527;54.616;39.786;2023-02-07T12:16:53;9.50;;;3.40;;
49626;SDS011;35527;54.616;39.786;2023-02-07T12:20:05;6.90;;;3.13;;
49626;SDS011;35527;54.616;39.786;2023-02-07T12:27:13;6.22;;;2.88;;
49626;SDS011;35527;54.616;39.786;2023-02-07T12:30:23;15.02;;;4.32;;
49626;SDS011;35527;54.616;39.786;2023-02-07T12:33:39;8.50;;;3.80;;
49626;SDS011;35527;54.616;39.786;2023-02-07T12:36:52;6.95;;;3.15;;
49626;SDS011;35527;54.616;39.786;2023-02-07T12:43:34;8.60;;;3.08;;
49626;SDS011;35527;54.616;39.786;2023-02-07T12:46:50;18.38;;;4.43;;
49626;SDS011;35527;54.616;39.786;2023-02-07T12:50:14;7.88;;;3.90;;
49626;SDS011;35527;54.616;39.786;2023-02-07T12:56:34;13.07;;;4.78;;
49626;SDS011;35527;54.616;39.786;2023-02-07T13:03:41;9.65;;;3.97;;
49626;SDS011;35527;54.616;39.786;2023-02-07T13:10:24;14.98;;;9.35;;
49626;SDS011;35527;54.616;39.786;2023-02-07T13:13:48;7.95;;;3.75;;
49626;SDS011;35527;54.616;39.786;2023-02-07T13:23:42;14.10;;;4.23;;
49626;SDS011;35527;54.616;39.786;2023-02-07T13:26:51;11.13;;;4.88;;
49626;SDS011;35527;54.616;39.786;2023-02-07T13:30:00;12.20;;;3.35;;
49626;SDS011;35527;54.616;39.786;2023-02-07T13:33:16;10.65;;;4.47;;
49626;SDS011;35527;54.616;39.786;2023-02-07T13:36:37;9.50;;;3.45;;
49626;SDS011;35527;54.616;39.786;2023-02-07T13:40:04;11.48;;;4.43;;
49626;SDS011;35527;54.616;39.786;2023-02-07T13:54:07;13.85;;;4.57;;
49626;SDS011;35527;54.616;39.786;2023-02-07T14:00:58;11.13;;;4.22;;
49626;SDS011;35527;54.616;39.786;2023-02-07T14:04:10;11.57;;;4.22;;
49626;SDS011;35527;54.616;39.786;2023-02-07T14:07:18;11.30;;;3.90;;
49626;SDS011;35527;54.616;39.786;2023-02-07T14:14:32;11.75;;;4.40;;
49626;SDS011;35527;54.616;39.786;2023-02-07T14:20:47;8.98;;;3.60;;
49626;SDS011;35527;54.616;39.786;2023-02-07T14:27:24;9.07;;;3.47;;
49626;SDS011;35527;54.616;39.786;2023-02-07T14:30:38;7.70;;;3.85;;
49626;SDS011;35527;54.616;39.786;2023-02-07T14:34:09;10.88;;;4.00;;
49626;SDS011;35527;54.616;39.786;2023-02-07T14:37:19;14.48;;;4.82;;
49626;SDS011;35527;54.616;39.786;2023-02-07T14:40:32;13.77;;;4.90;;
49626;SDS011;35527;54.616;39.786;2023-02-07T14:43:50;14.18;;;5.70;;
49626;SDS011;35527;54.616;39.786;2023-02-07T14:47:15;11.88;;;4.30;;
49626;SDS011;35527;54.616;39.786;2023-02-07T14:50:28;9.13;;;4.43;;
49626;SDS011;35527;54.616;39.786;2023-02-07T14:53:36;11.63;;;4.60;;
49626;SDS011;35527;54.616;39.786;2023-02-07T15:00:23;12.85;;;4.78;;
49626;SDS011;35527;54.616;39.786;2023-02-07T15:03:30;13.38;;;4.88;;
49626;SDS011;35527;54.616;39.786;2023-02-07T15:06:42;16.05;;;5.30;;
49626;SDS011;35527;54.616;39.786;2023-02-07T15:09:47;14.88;;;4.65;;
49626;SDS011;35527;54.616;39.786;2023-02-07T15:12:51;11.25;;;4.80;;
49626;SDS011;35527;54.616;39.786;2023-02-07T15:15:59;15.70;;;4.88;;
49626;SDS011;35527;54.616;39.786;2023-02-07T15:19:21;13.77;;;5.47;;
49626;SDS011;35527;54.616;39.786;2023-02-07T15:22:46;14.75;;;5.78;;
49626;SDS011;35527;54.616;39.786;2023-02-07T15:25:52;14.02;;;5.38;;
49626;SDS011;35527;54.616;39.786;2023-02-07T15:29:03;13.00;;;5.35;;
49626;SDS011;35527;54.616;39.786;2023-02-07T15:32:26;12.57;;;5.40;;
49626;SDS011;35527;54.616;39.786;2023-02-07T15:35:36;14.65;;;6.50;;
49626;SDS011;35527;54.616;39.786;2023-02-07T15:38:41;15.10;;;6.50;;
49626;SDS011;35527;54.616;39.786;2023-02-07T15:41:49;23.55;;;8.88;;
49626;SDS011;35527;54.616;39.786;2023-02-07T15:44:55;20.77;;;7.65;;
49626;SDS011;35527;54.616;39.786;2023-02-07T15:48:00;18.58;;;5.53;;
49626;SDS011;35527;54.616;39.786;2023-02-07T15:54:17;14.40;;;6.05;;
49626;SDS011;35527;54.616;39.786;2023-02-07T16:00:35;13.23;;;5.60;;
49626;SDS011;35527;54.616;39.786;2023-02-07T16:03:42;20.63;;;7.63;;
49626;SDS011;35527;54.616;39.786;2023-02-07T16:07:02;13.38;;;6.03;;
49626;SDS011;35527;54.616;39.786;2023-02-07T16:10:30;14.02;;;5.78;;
49626;SDS011;35527;54.616;39.786;2023-02-07T16:13:41;16.50;;;6.85;;
49626;SDS011;35527;54.616;39.786;2023-02-07T16:16:57;14.65;;;6.45;;
49626;SDS011;35527;54.616;39.786;2023-02-07T16:20:02;17.83;;;6.15;;
49626;SDS011;35527;54.616;39.786;2023-02-07T16:23:06;15.48;;;5.88;;
49626;SDS011;35527;54.616;39.786;2023-02-07T16:26:11;20.00;;;6.32;;
49626;SDS011;35527;54.616;39.786;2023-02-07T16:29:17;16.55;;;6.40;;
49626;SDS011;35527;54.616;39.786;2023-02-07T16:35:26;16.10;;;6.45;;
49626;SDS011;35527;54.616;39.786;2023-02-07T16:38:29;17.10;;;6.18;;
49626;SDS011;35527;54.616;39.786;2023-02-07T16:41:37;13.95;;;5.15;;
49626;SDS011;35527;54.616;39.786;2023-02-07T16:44:45;16.50;;;7.22;;
49626;SDS011;35527;54.616;39.786;2023-02-07T16:47:48;16.67;;;6.60;;
49626;SDS011;35527;54.616;39.786;2023-02-07T16:50:53;20.48;;;8.07;;
49626;SDS011;35527;54.616;39.786;2023-02-07T16:53:57;17.65;;;7.50;;
49626;SDS011;35527;54.616;39.786;2023-02-07T16:57:00;17.73;;;5.88;;
49626;SDS011;35527;54.616;39.786;2023-02-07T17:00:30;14.88;;;6.55;;
49626;SDS011;35527;54.616;39.786;2023-02-07T17:03:32;19.08;;;8.32;;
49626;SDS011;35527;54.616;39.786;2023-02-07T17:06:35;22.65;;;8.43;;
49626;SDS011;35527;54.616;39.786;2023-02-07T17:09:38;19.00;;;7.28;;
49626;SDS011;35527;54.616;39.786;2023-02-07T17:12:42;18.67;;;7.77;;
49626;SDS011;35527;54.616;39.786;2023-02-07T17:15:45;16.67;;;7.32;;
49626;SDS011;35527;54.616;39.786;2023-02-07T17:18:49;22.13;;;7.88;;
49626;SDS011;35527;54.616;39.786;2023-02-07T17:21:52;15.80;;;7.57;;
49626;SDS011;35527;54.616;39.786;2023-02-07T17:25:01;22.20;;;8.40;;
49626;SDS011;35527;54.616;39.786;2023-02-07T17:28:08;16.48;;;8.27;;
49626;SDS011;35527;54.616;39.786;2023-02-07T17:31:23;21.15;;;8.40;;
49626;SDS011;35527;54.616;39.786;2023-02-07T17:34:28;24.23;;;8.43;;
49626;SDS011;35527;54.616;39.786;2023-02-07T17:37:31;19.05;;;8.60;;
49626;SDS011;35527;54.616;39.786;2023-02-07T17:40:35;26.40;;;10.30;;
49626;SDS011;35527;54.616;39.786;2023-02-07T17:43:42;17.45;;;7.43;;
49626;SDS011;35527;54.616;39.786;2023-02-07T17:46:45;18.65;;;7.78;;
49626;SDS011;35527;54.616;39.786;2023-02-07T17:49:49;23.42;;;9.80;;
49626;SDS011;35527;54.616;39.786;2023-02-07T17:52:54;21.63;;;8.57;;
49626;SDS011;35527;54.616;39.786;2023-02-07T17:55:59;19.25;;;8.68;;
49626;SDS011;35527;54.616;39.786;2023-02-07T17:59:04;22.35;;;9.38;;
49626;SDS011;35527;54.616;39.786;2023-02-07T18:02:34;19.25;;;7.50;;
49626;SDS011;35527;54.616;39.786;2023-02-07T18:05:37;20.35;;;8.05;;
49626;SDS011;35527;54.616;39.786;2023-02-07T18:08:46;21.27;;;7.43;;
49626;SDS011;35527;54.616;39.786;2023-02-07T18:11:51;21.60;;;8.98;;
49626;SDS011;35527;54.616;39.786;2023-02-07T18:14:54;20.50;;;8.20;;
49626;SDS011;35527;54.616;39.786;2023-02-07T18:18:22;13.30;;;5.38;;
49626;SDS011;35527;54.616;39.786;2023-02-07T18:21:27;22.00;;;7.38;;
49626;SDS011;35527;54.616;39.786;2023-02-07T18:24:30;18.92;;;8.18;;
49626;SDS011;35527;54.616;39.786;2023-02-07T18:27:36;18.83;;;7.45;;
49626;SDS011;35527;54.616;39.786;2023-02-07T18:30:40;21.98;;;7.93;;
49626;SDS011;35527;54.616;39.786;2023-02-07T18:33:43;18.38;;;8.00;;
49626;SDS011;35527;54.616;39.786;2023-02-07T18:36:47;15.75;;;6.03;;
49626;SDS011;35527;54.616;39.786;2023-02-07T18:39:50;15.70;;;6.78;;
49626;SDS011;35527;54.616;39.786;2023-02-07T18:42:54;15.82;;;6.70;;
49626;SDS011;35527;54.616;39.786;2023-02-07T18:46:05;16.95;;;7.30;;
49626;SDS011;35527;54.616;39.786;2023-02-07T18:49:13;14.85;;;5.63;;
49626;SDS011;35527;54.616;39.786;2023-02-07T18:52:18;15.13;;;5.78;;
49626;SDS011;35527;54.616;39.786;2023-02-07T18:55:21;19.45;;;7.65;;
49626;SDS011;35527;54.616;39.786;2023-02-07T18:58:29;17.65;;;6.55;;
49626;SDS011;35527;54.616;39.786;2023-02-07T19:01:33;16.20;;;6.53;;
49626;SDS011;35527;54.616;39.786;2023-02-07T19:04:37;13.93;;;6.00;;
49626;SDS011;35527;54.616;39.786;2023-02-07T19:07:43;15.57;;;7.25;;
49626;SDS011;35527;54.616;39.786;2023-02-07T19:10:53;21.65;;;8.50;;
49626;SDS011;35527;54.616;39.786;2023-02-07T19:13:57;17.83;;;7.35;;
49626;SDS011;35527;54.616;39.786;2023-02-07T19:17:02;12.98;;;5.75;;
49626;SDS011;35527;54.616;39.786;2023-02-07T19:20:07;16.73;;;6.47;;
49626;SDS011;35527;54.616;39.786;2023-02-07T19:23:12;16.45;;;7.28;;
49626;SDS011;35527;54.616;39.786;2023-02-07T19:26:18;17.52;;;7.30;;
49626;SDS011;35527;54.616;39.786;2023-02-07T19:29:22;20.58;;;6.93;;
49626;SDS011;35527;54.616;39.786;2023-02-07T19:32:29;24.30;;;6.65;;
49626;SDS011;35527;54.616;39.786;2023-02-07T19:35:36;24.65;;;8.18;;
49626;SDS011;35527;54.616;39.786;2023-02-07T19:38:39;15.93;;;7.13;;
49626;SDS011;35527;54.616;39.786;2023-02-07T19:41:44;16.80;;;7.35;;
49626;SDS011;35527;54.616;39.786;2023-02-07T19:44:46;23.08;;;9.68;;
49626;SDS011;35527;54.616;39.786;2023-02-07T19:47:53;23.90;;;9.70;;
49626;SDS011;35527;54.616;39.786;2023-02-07T19:50:59;21.80;;;10.00;;
49626;SDS011;35527;54.616;39.786;2023-02-07T19:54:04;21.00;;;8.85;;
49626;SDS011;35527;54.616;39.786;2023-02-07T19:57:08;21.00;;;8.43;;
49626;SDS011;35527;54.616;39.786;2023-02-07T20:00:13;17.02;;;6.63;;
49626;SDS011;35527;54.616;39.786;2023-02-07T20:03:19;26.67;;;9.80;;
49626;SDS011;35527;54.616;39.786;2023-02-07T20:06:24;20.88;;;9.50;;
49626;SDS011;35527;54.616;39.786;2023-02-07T20:09:34;23.20;;;9.73;;
49626;SDS011;35527;54.616;39.786;2023-02-07T20:12:40;24.27;;;10.05;;
49626;SDS011;35527;54.616;39.786;2023-02-07T20:15:45;21.83;;;8.75;;
49626;SDS011;35527;54.616;39.786;2023-02-07T20:18:50;23.23;;;10.48;;
49626;SDS011;35527;54.616;39.786;2023-02-07T20:21:53;22.02;;;8.27;;
49626;SDS011;35527;54.616;39.786;2023-02-07T20:24:57;20.95;;;8.38;;